sensor_id;sensor_type;location;lat;lon;timestamp;temperature;humidity
68051;DHT22;54839;51.364;7.246;2023-02-28T00:02:11;0.50;99.90
68051;DHT22;54839;51.364;7.246;2023-02-28T00:04:37;0.30;99.90
68051;DHT22;54839;51.364;7.246;2023-02-28T00:07:02;0.30;99.90
68051;DHT22;54839;51.364;7.246;2023-02-28T00:09:28;0.30;99.90
68051;DHT22;54839;51.364;7.246;2023-02-28T00:11:53;0.30;99.90
68051;DHT22;54839;51.364;7.246;2023-02-28T00:14:19;0.20;99.90
68051;DHT22;54839;51.364;7.246;2023-02-28T00:16:44;0.20;99.90
68051;DHT22;54839;51.364;7.246;2023-02-28T00:19:10;0.10;99.90
68051;DHT22;54839;51.364;7.246;2023-02-28T00:21:38;0.00;99.90
68051;DHT22;54839;51.364;7.246;2023-02-28T00:24:06;0.00;99.90
68051;DHT22;54839;51.364;7.246;2023-02-28T00:26:31;0.00;99.90
68051;DHT22;54839;51.364;7.246;2023-02-28T00:28:57;0.10;99.90
68051;DHT22;54839;51.364;7.246;2023-02-28T00:31:23;0.00;99.90
68051;DHT22;54839;51.364;7.246;2023-02-28T00:33:48;0.00;99.90
68051;DHT22;54839;51.364;7.246;2023-02-28T00:36:14;0.00;99.90
68051;DHT22;54839;51.364;7.246;2023-02-28T00:38:40;-0.10;99.90
68051;DHT22;54839;51.364;7.246;2023-02-28T00:41:07;-0.10;99.90
68051;DHT22;54839;51.364;7.246;2023-02-28T00:43:34;-0.30;99.90
68051;DHT22;54839;51.364;7.246;2023-02-28T00:46:00;-0.30;99.90
68051;DHT22;54839;51.364;7.246;2023-02-28T00:48:26;-0.30;99.90
68051;DHT22;54839;51.364;7.246;2023-02-28T00:50:51;-0.30;99.90
68051;DHT22;54839;51.364;7.246;2023-02-28T00:53:17;-0.30;99.90
68051;DHT22;54839;51.364;7.246;2023-02-28T00:55:42;-0.30;99.90
68051;DHT22;54839;51.364;7.246;2023-02-28T00:58:08;-0.40;99.90
68051;DHT22;54839;51.364;7.246;2023-02-28T01:00:33;-0.40;99.90
68051;DHT22;54839;51.364;7.246;2023-02-28T01:02:59;-0.40;99.90
68051;DHT22;54839;51.364;7.246;2023-02-28T01:05:24;-0.60;99.90
68051;DHT22;54839;51.364;7.246;2023-02-28T01:07:50;-0.60;99.90
68051;DHT22;54839;51.364;7.246;2023-02-28T01:10:16;-0.60;99.90
68051;DHT22;54839;51.364;7.246;2023-02-28T01:12:41;-0.50;99.90
68051;DHT22;54839;51.364;7.246;2023-02-28T01:15:09;-0.50;99.90
68051;DHT22;54839;51.364;7.246;2023-02-28T01:17:35;-0.50;99.90
68051;DHT22;54839;51.364;7.246;2023-02-28T01:20:01;-0.60;99.90
68051;DHT22;54839;51.364;7.246;2023-02-28T01:22:26;-0.70;99.90
68051;DHT22;54839;51.364;7.246;2023-02-28T01:24:52;-0.70;99.90
68051;DHT22;54839;51.364;7.246;2023-02-28T01:27:18;-0.80;99.90
68051;DHT22;54839;51.364;7.246;2023-02-28T01:29:43;-0.90;99.90
68051;DHT22;54839;51.364;7.246;2023-02-28T01:32:09;-0.80;99.90
68051;DHT22;54839;51.364;7.246;2023-02-28T01:34:34;-0.80;99.90
68051;DHT22;54839;51.364;7.246;2023-02-28T01:37:00;-1.00;99.90
68051;DHT22;54839;51.364;7.246;2023-02-28T01:39:26;-1.00;99.90
68051;DHT22;54839;51.364;7.246;2023-02-28T01:41:52;-1.10;99.90
68051;DHT22;54839;51.364;7.246;2023-02-28T01:47:21;-1.30;99.90
68051;DHT22;54839;51.364;7.246;2023-02-28T01:49:47;-1.40;99.90
68051;DHT22;54839;51.364;7.246;2023-02-28T01:52:14;-1.50;99.90
68051;DHT22;54839;51.364;7.246;2023-02-28T01:54:46;-1.60;99.90
68051;DHT22;54839;51.364;7.246;2023-02-28T01:57:16;-1.60;99.90
68051;DHT22;54839;51.364;7.246;2023-02-28T01:59:53;-1.70;99.90
68051;DHT22;54839;51.364;7.246;2023-02-28T02:02:21;-1.70;99.90
68051;DHT22;54839;51.364;7.246;2023-02-28T02:07:31;-1.70;99.90
68051;DHT22;54839;51.364;7.246;2023-02-28T02:10:19;-1.80;99.90
68051;DHT22;54839;51.364;7.246;2023-02-28T02:13:20;-1.90;99.90
68051;DHT22;54839;51.364;7.246;2023-02-28T02:21:50;-2.00;99.90
68051;DHT22;54839;51.364;7.246;2023-02-28T02:24:33;-2.10;99.90
68051;DHT22;54839;51.364;7.246;2023-02-28T02:30:21;-2.30;99.90
68051;DHT22;54839;51.364;7.246;2023-02-28T02:35:28;-2.30;99.90
68051;DHT22;54839;51.364;7.246;2023-02-28T02:41:45;-2.30;99.90
68051;DHT22;54839;51.364;7.246;2023-02-28T02:43:48;-2.30;99.90
68051;DHT22;54839;51.364;7.246;2023-02-28T02:46:33;-2.30;99.90
68051;DHT22;54839;51.364;7.246;2023-02-28T02:49:02;-2.40;99.90
68051;DHT22;54839;51.364;7.246;2023-02-28T02:51:30;-2.40;99.90
68051;DHT22;54839;51.364;7.246;2023-02-28T02:54:05;-2.40;99.90
68051;DHT22;54839;51.364;7.246;2023-02-28T02:56:33;-2.30;99.90
68051;DHT22;54839;51.364;7.246;2023-02-28T02:59:02;-2.30;99.90
68051;DHT22;54839;51.364;7.246;2023-02-28T03:01:30;-2.20;99.90
68051;DHT22;54839;51.364;7.246;2023-02-28T03:04:02;-2.40;99.90
68051;DHT22;54839;51.364;7.246;2023-02-28T03:06:28;-2.40;99.90
68051;DHT22;54839;51.364;7.246;2023-02-28T03:08:53;-2.50;99.90
68051;DHT22;54839;51.364;7.246;2023-02-28T03:11:19;-2.60;99.90
68051;DHT22;54839;51.364;7.246;2023-02-28T03:16:36;-2.70;99.90
68051;DHT22;54839;51.364;7.246;2023-02-28T03:24:51;-2.80;99.90
68051;DHT22;54839;51.364;7.246;2023-02-28T03:30:11;-2.80;99.90
68051;DHT22;54839;51.364;7.246;2023-02-28T03:32:45;-2.80;99.90
68051;DHT22;54839;51.364;7.246;2023-02-28T03:35:24;-2.80;99.90
68051;DHT22;54839;51.364;7.246;2023-02-28T03:37:55;-2.50;99.90
68051;DHT22;54839;51.364;7.246;2023-02-28T03:40:28;-2.40;99.90
68051;DHT22;54839;51.364;7.246;2023-02-28T03:42:59;-2.50;99.90
68051;DHT22;54839;51.364;7.246;2023-02-28T03:45:33;-2.60;99.90
68051;DHT22;54839;51.364;7.246;2023-02-28T03:48:08;-2.60;99.90
68051;DHT22;54839;51.364;7.246;2023-02-28T03:50:38;-2.50;99.90
68051;DHT22;54839;51.364;7.246;2023-02-28T03:53:18;-2.60;99.90
68051;DHT22;54839;51.364;7.246;2023-02-28T03:55:57;-2.70;99.90
68051;DHT22;54839;51.364;7.246;2023-02-28T03:58:44;-2.70;99.90
68051;DHT22;54839;51.364;7.246;2023-02-28T04:01:22;-2.60;99.90
68051;DHT22;54839;51.364;7.246;2023-02-28T04:03:49;-2.50;99.90
68051;DHT22;54839;51.364;7.246;2023-02-28T04:06:21;-2.40;99.90
68051;DHT22;54839;51.364;7.246;2023-02-28T04:08:47;-2.30;99.90
68051;DHT22;54839;51.364;7.246;2023-02-28T04:13:44;-2.20;99.90
68051;DHT22;54839;51.364;7.246;2023-02-28T04:16:10;-2.20;99.90
68051;DHT22;54839;51.364;7.246;2023-02-28T04:18:38;-2.20;99.90
68051;DHT22;54839;51.364;7.246;2023-02-28T04:21:05;-2.30;99.90
68051;DHT22;54839;51.364;7.246;2023-02-28T04:23:31;-2.20;99.90
68051;DHT22;54839;51.364;7.246;2023-02-28T04:25:56;-2.10;99.90
68051;DHT22;54839;51.364;7.246;2023-02-28T04:28:22;-2.00;99.90
68051;DHT22;54839;51.364;7.246;2023-02-28T04:30:53;-2.00;99.90
68051;DHT22;54839;51.364;7.246;2023-02-28T04:33:19;-2.10;99.90
68051;DHT22;54839;51.364;7.246;2023-02-28T04:35:44;-2.20;99.90
68051;DHT22;54839;51.364;7.246;2023-02-28T04:38:10;-2.20;99.90
68051;DHT22;54839;51.364;7.246;2023-02-28T04:40:35;-2.20;99.90
68051;DHT22;54839;51.364;7.246;2023-02-28T04:43:01;-2.30;99.90
68051;DHT22;54839;51.364;7.246;2023-02-28T04:45:26;-2.30;99.90
68051;DHT22;54839;51.364;7.246;2023-02-28T04:47:55;-2.20;99.90
68051;DHT22;54839;51.364;7.246;2023-02-28T04:50:20;-2.00;99.90
68051;DHT22;54839;51.364;7.246;2023-02-28T04:52:46;-2.00;99.90
68051;DHT22;54839;51.364;7.246;2023-02-28T04:55:11;-2.10;99.90
68051;DHT22;54839;51.364;7.246;2023-02-28T04:57:37;-2.20;99.90
68051;DHT22;54839;51.364;7.246;2023-02-28T05:00:03;-2.00;99.90
68051;DHT22;54839;51.364;7.246;2023-02-28T05:02:34;-2.20;99.90
68051;DHT22;54839;51.364;7.246;2023-02-28T05:05:00;-2.20;99.90
68051;DHT22;54839;51.364;7.246;2023-02-28T05:07:25;-2.00;99.90
68051;DHT22;54839;51.364;7.246;2023-02-28T05:09:51;-2.00;99.90
68051;DHT22;54839;51.364;7.246;2023-02-28T05:12:16;-2.10;99.90
68051;DHT22;54839;51.364;7.246;2023-02-28T05:14:42;-2.20;99.90
68051;DHT22;54839;51.364;7.246;2023-02-28T05:17:08;-2.20;99.90
68051;DHT22;54839;51.364;7.246;2023-02-28T05:19:34;-2.20;99.90
68051;DHT22;54839;51.364;7.246;2023-02-28T05:21:59;-2.20;99.90
68051;DHT22;54839;51.364;7.246;2023-02-28T05:24:25;-2.30;99.90
68051;DHT22;54839;51.364;7.246;2023-02-28T05:26:53;-2.30;99.90
68051;DHT22;54839;51.364;7.246;2023-02-28T05:29:19;-2.40;99.90
68051;DHT22;54839;51.364;7.246;2023-02-28T05:31:47;-2.40;99.90
68051;DHT22;54839;51.364;7.246;2023-02-28T05:34:12;-2.30;99.90
68051;DHT22;54839;51.364;7.246;2023-02-28T05:36:40;-2.30;99.90
68051;DHT22;54839;51.364;7.246;2023-02-28T05:39:06;-2.40;99.90
68051;DHT22;54839;51.364;7.246;2023-02-28T05:41:38;-2.40;99.90
68051;DHT22;54839;51.364;7.246;2023-02-28T05:44:03;-2.60;99.90
68051;DHT22;54839;51.364;7.246;2023-02-28T05:46:29;-2.60;99.90
68051;DHT22;54839;51.364;7.246;2023-02-28T05:48:54;-2.60;99.90
68051;DHT22;54839;51.364;7.246;2023-02-28T05:51:21;-2.70;99.90
68051;DHT22;54839;51.364;7.246;2023-02-28T05:53:47;-2.80;99.90
68051;DHT22;54839;51.364;7.246;2023-02-28T05:56:14;-2.90;99.90
68051;DHT22;54839;51.364;7.246;2023-02-28T05:58:40;-2.80;99.90
68051;DHT22;54839;51.364;7.246;2023-02-28T06:01:30;-2.90;99.90
68051;DHT22;54839;51.364;7.246;2023-02-28T06:03:56;-2.90;99.90
68051;DHT22;54839;51.364;7.246;2023-02-28T06:06:21;-3.00;99.90
68051;DHT22;54839;51.364;7.246;2023-02-28T06:08:47;-3.00;99.90
68051;DHT22;54839;51.364;7.246;2023-02-28T06:11:12;-3.10;99.90
68051;DHT22;54839;51.364;7.246;2023-02-28T06:13:38;-3.20;99.90
68051;DHT22;54839;51.364;7.246;2023-02-28T06:16:04;-3.20;99.90
68051;DHT22;54839;51.364;7.246;2023-02-28T06:18:29;-3.20;99.90
68051;DHT22;54839;51.364;7.246;2023-02-28T06:20:55;-3.30;99.90
68051;DHT22;54839;51.364;7.246;2023-02-28T06:23:22;-3.20;99.90
68051;DHT22;54839;51.364;7.246;2023-02-28T06:25:47;-3.20;99.90
68051;DHT22;54839;51.364;7.246;2023-02-28T06:28:14;-3.20;99.90
68051;DHT22;54839;51.364;7.246;2023-02-28T06:30:40;-3.10;99.90
68051;DHT22;54839;51.364;7.246;2023-02-28T06:33:05;-3.30;99.90
68051;DHT22;54839;51.364;7.246;2023-02-28T06:35:31;-3.30;99.90
68051;DHT22;54839;51.364;7.246;2023-02-28T06:37:57;-3.30;99.90
68051;DHT22;54839;51.364;7.246;2023-02-28T06:40:22;-3.30;99.90
68051;DHT22;54839;51.364;7.246;2023-02-28T06:42:48;-3.30;99.90
68051;DHT22;54839;51.364;7.246;2023-02-28T06:45:14;-3.40;99.90
68051;DHT22;54839;51.364;7.246;2023-02-28T06:47:40;-3.30;99.90
68051;DHT22;54839;51.364;7.246;2023-02-28T06:50:09;-3.20;99.90
68051;DHT22;54839;51.364;7.246;2023-02-28T06:52:35;-3.20;99.90
68051;DHT22;54839;51.364;7.246;2023-02-28T06:55:07;-3.20;99.90
68051;DHT22;54839;51.364;7.246;2023-02-28T06:57:34;-3.20;99.90
68051;DHT22;54839;51.364;7.246;2023-02-28T07:00:03;-3.20;99.90
68051;DHT22;54839;51.364;7.246;2023-02-28T07:02:29;-3.10;99.90
68051;DHT22;54839;51.364;7.246;2023-02-28T07:04:55;-3.00;99.90
68051;DHT22;54839;51.364;7.246;2023-02-28T07:07:20;-2.90;99.90
68051;DHT22;54839;51.364;7.246;2023-02-28T07:09:46;-2.90;99.90
68051;DHT22;54839;51.364;7.246;2023-02-28T07:12:11;-2.80;99.90
68051;DHT22;54839;51.364;7.246;2023-02-28T07:14:37;-2.70;99.90
68051;DHT22;54839;51.364;7.246;2023-02-28T07:17:03;-2.70;99.90
68051;DHT22;54839;51.364;7.246;2023-02-28T07:19:28;-2.60;99.90
68051;DHT22;54839;51.364;7.246;2023-02-28T07:21:54;-2.50;99.90
68051;DHT22;54839;51.364;7.246;2023-02-28T07:24:20;-2.40;99.90
68051;DHT22;54839;51.364;7.246;2023-02-28T07:26:46;-2.40;99.90
68051;DHT22;54839;51.364;7.246;2023-02-28T07:29:11;-2.30;99.90
68051;DHT22;54839;51.364;7.246;2023-02-28T07:31:37;-2.30;99.90
68051;DHT22;54839;51.364;7.246;2023-02-28T07:34:02;-2.20;99.90
68051;DHT22;54839;51.364;7.246;2023-02-28T07:36:28;-2.10;99.90
68051;DHT22;54839;51.364;7.246;2023-02-28T07:38:54;-2.00;99.90
68051;DHT22;54839;51.364;7.246;2023-02-28T07:41:22;-2.00;99.90
68051;DHT22;54839;51.364;7.246;2023-02-28T07:43:49;-1.90;99.90
68051;DHT22;54839;51.364;7.246;2023-02-28T07:46:16;-1.80;99.90
68051;DHT22;54839;51.364;7.246;2023-02-28T07:48:43;-1.80;99.90
68051;DHT22;54839;51.364;7.246;2023-02-28T07:51:09;-1.80;99.90
68051;DHT22;54839;51.364;7.246;2023-02-28T07:53:34;-1.40;99.90
68051;DHT22;54839;51.364;7.246;2023-02-28T07:56:01;-1.30;99.90
68051;DHT22;54839;51.364;7.246;2023-02-28T07:58:28;-1.20;99.90
68051;DHT22;54839;51.364;7.246;2023-02-28T08:00:55;-1.00;99.90
68051;DHT22;54839;51.364;7.246;2023-02-28T08:03:22;-0.90;99.90
68051;DHT22;54839;51.364;7.246;2023-02-28T08:05:48;-0.80;99.90
68051;DHT22;54839;51.364;7.246;2023-02-28T08:08:14;-0.80;99.90
68051;DHT22;54839;51.364;7.246;2023-02-28T08:10:40;-0.70;99.90
68051;DHT22;54839;51.364;7.246;2023-02-28T08:13:06;-0.50;99.90
68051;DHT22;54839;51.364;7.246;2023-02-28T08:15:32;-0.40;99.90
68051;DHT22;54839;51.364;7.246;2023-02-28T08:17:57;-0.30;99.90
68051;DHT22;54839;51.364;7.246;2023-02-28T08:20:24;-0.40;99.90
68051;DHT22;54839;51.364;7.246;2023-02-28T08:22:50;-0.30;99.90
68051;DHT22;54839;51.364;7.246;2023-02-28T08:25:16;-0.20;99.90
68051;DHT22;54839;51.364;7.246;2023-02-28T08:27:41;0.00;99.90
68051;DHT22;54839;51.364;7.246;2023-02-28T08:30:09;0.00;99.90
68051;DHT22;54839;51.364;7.246;2023-02-28T08:32:35;0.00;99.90
68051;DHT22;54839;51.364;7.246;2023-02-28T08:35:01;0.10;99.90
68051;DHT22;54839;51.364;7.246;2023-02-28T08:37:28;0.20;99.90
68051;DHT22;54839;51.364;7.246;2023-02-28T08:39:53;0.30;99.90
68051;DHT22;54839;51.364;7.246;2023-02-28T08:42:19;0.40;99.90
68051;DHT22;54839;51.364;7.246;2023-02-28T08:44:44;0.50;99.90
68051;DHT22;54839;51.364;7.246;2023-02-28T08:47:10;0.70;99.90
68051;DHT22;54839;51.364;7.246;2023-02-28T08:49:36;0.80;99.90
68051;DHT22;54839;51.364;7.246;2023-02-28T08:52:03;1.00;99.90
68051;DHT22;54839;51.364;7.246;2023-02-28T08:54:29;1.10;99.90
68051;DHT22;54839;51.364;7.246;2023-02-28T08:56:57;1.20;99.90
68051;DHT22;54839;51.364;7.246;2023-02-28T08:59:22;1.10;99.90
68051;DHT22;54839;51.364;7.246;2023-02-28T09:01:48;1.10;99.90
68051;DHT22;54839;51.364;7.246;2023-02-28T09:04:14;1.00;99.90
68051;DHT22;54839;51.364;7.246;2023-02-28T09:06:39;0.90;99.90
68051;DHT22;54839;51.364;7.246;2023-02-28T09:09:05;0.80;99.90
68051;DHT22;54839;51.364;7.246;2023-02-28T09:11:33;0.60;99.90
68051;DHT22;54839;51.364;7.246;2023-02-28T09:13:59;0.80;99.90
68051;DHT22;54839;51.364;7.246;2023-02-28T09:16:26;1.10;99.90
68051;DHT22;54839;51.364;7.246;2023-02-28T09:18:52;1.70;99.90
68051;DHT22;54839;51.364;7.246;2023-02-28T09:21:18;2.00;99.90
68051;DHT22;54839;51.364;7.246;2023-02-28T09:23:45;2.00;99.90
68051;DHT22;54839;51.364;7.246;2023-02-28T09:26:22;1.70;99.90
68051;DHT22;54839;51.364;7.246;2023-02-28T09:28:48;1.60;99.90
68051;DHT22;54839;51.364;7.246;2023-02-28T09:31:20;1.70;99.90
68051;DHT22;54839;51.364;7.246;2023-02-28T09:33:48;1.80;99.90
68051;DHT22;54839;51.364;7.246;2023-02-28T09:36:13;2.00;99.90
68051;DHT22;54839;51.364;7.246;2023-02-28T09:38:39;2.00;99.90
68051;DHT22;54839;51.364;7.246;2023-02-28T09:41:13;2.00;99.90
68051;DHT22;54839;51.364;7.246;2023-02-28T09:43:44;2.20;99.90
68051;DHT22;54839;51.364;7.246;2023-02-28T09:46:26;2.40;99.90
68051;DHT22;54839;51.364;7.246;2023-02-28T09:48:52;2.60;99.90
68051;DHT22;54839;51.364;7.246;2023-02-28T09:53:49;2.60;99.90
68051;DHT22;54839;51.364;7.246;2023-02-28T09:56:20;2.70;99.90
68051;DHT22;54839;51.364;7.246;2023-02-28T09:59:13;2.80;99.90
68051;DHT22;54839;51.364;7.246;2023-02-28T10:01:57;2.80;99.90
68051;DHT22;54839;51.364;7.246;2023-02-28T10:08:05;3.30;99.90
68051;DHT22;54839;51.364;7.246;2023-02-28T10:11:00;3.30;99.90
68051;DHT22;54839;51.364;7.246;2023-02-28T10:13:48;3.40;99.90
68051;DHT22;54839;51.364;7.246;2023-02-28T10:16:35;3.30;99.90
68051;DHT22;54839;51.364;7.246;2023-02-28T10:19:03;3.50;99.90
68051;DHT22;54839;51.364;7.246;2023-02-28T10:21:35;3.70;99.90
68051;DHT22;54839;51.364;7.246;2023-02-28T10:26:41;3.40;99.90
68051;DHT22;54839;51.364;7.246;2023-02-28T10:29:08;3.20;99.90
68051;DHT22;54839;51.364;7.246;2023-02-28T10:31:34;3.00;99.90
68051;DHT22;54839;51.364;7.246;2023-02-28T10:34:00;3.00;99.90
68051;DHT22;54839;51.364;7.246;2023-02-28T10:36:26;3.10;99.90
68051;DHT22;54839;51.364;7.246;2023-02-28T10:38:53;3.10;99.90
68051;DHT22;54839;51.364;7.246;2023-02-28T10:41:31;2.60;99.90
68051;DHT22;54839;51.364;7.246;2023-02-28T10:44:20;2.40;99.90
68051;DHT22;54839;51.364;7.246;2023-02-28T10:46:46;2.50;99.90
68051;DHT22;54839;51.364;7.246;2023-02-28T10:49:25;2.50;99.90
68051;DHT22;54839;51.364;7.246;2023-02-28T10:51:56;2.40;99.90
68051;DHT22;54839;51.364;7.246;2023-02-28T10:54:34;2.60;99.90
68051;DHT22;54839;51.364;7.246;2023-02-28T10:57:21;2.90;99.90
68051;DHT22;54839;51.364;7.246;2023-02-28T11:00:07;3.10;99.90
68051;DHT22;54839;51.364;7.246;2023-02-28T11:02:37;3.00;99.90
68051;DHT22;54839;51.364;7.246;2023-02-28T11:07:52;3.10;99.90
68051;DHT22;54839;51.364;7.246;2023-02-28T11:10:21;3.20;99.90
68051;DHT22;54839;51.364;7.246;2023-02-28T11:12:49;3.50;99.90
68051;DHT22;54839;51.364;7.246;2023-02-28T11:15:22;3.40;99.90
68051;DHT22;54839;51.364;7.246;2023-02-28T11:20:36;3.00;99.90
68051;DHT22;54839;51.364;7.246;2023-02-28T11:23:03;3.00;99.90
68051;DHT22;54839;51.364;7.246;2023-02-28T11:25:35;3.30;99.90
68051;DHT22;54839;51.364;7.246;2023-02-28T11:28:04;3.30;99.90
68051;DHT22;54839;51.364;7.246;2023-02-28T11:30:40;3.30;99.90
68051;DHT22;54839;51.364;7.246;2023-02-28T11:33:28;3.20;99.90
68051;DHT22;54839;51.364;7.246;2023-02-28T11:35:59;3.30;99.90
68051;DHT22;54839;51.364;7.246;2023-02-28T11:38:26;3.40;99.90
68051;DHT22;54839;51.364;7.246;2023-02-28T11:51:35;3.90;99.90
68051;DHT22;54839;51.364;7.246;2023-02-28T11:54:19;4.00;99.90
68051;DHT22;54839;51.364;7.246;2023-02-28T11:56:50;4.00;99.90
68051;DHT22;54839;51.364;7.246;2023-02-28T12:02:28;4.10;99.90
68051;DHT22;54839;51.364;7.246;2023-02-28T12:13:10;3.90;99.90
68051;DHT22;54839;51.364;7.246;2023-02-28T12:15:41;4.00;99.90
68051;DHT22;54839;51.364;7.246;2023-02-28T12:26:43;4.10;99.90
68051;DHT22;54839;51.364;7.246;2023-02-28T12:29:19;4.20;99.90
68051;DHT22;54839;51.364;7.246;2023-02-28T12:32:10;4.40;99.90
68051;DHT22;54839;51.364;7.246;2023-02-28T12:34:41;4.50;99.90
68051;DHT22;54839;51.364;7.246;2023-02-28T12:37:16;4.50;99.90
68051;DHT22;54839;51.364;7.246;2023-02-28T12:39:48;4.30;99.90
68051;DHT22;54839;51.364;7.246;2023-02-28T12:42:28;4.60;99.90
68051;DHT22;54839;51.364;7.246;2023-02-28T12:44:59;4.40;99.90
68051;DHT22;54839;51.364;7.246;2023-02-28T12:47:27;4.10;99.90
68051;DHT22;54839;51.364;7.246;2023-02-28T12:50:02;4.20;99.90
68051;DHT22;54839;51.364;7.246;2023-02-28T12:52:59;4.40;99.90
68051;DHT22;54839;51.364;7.246;2023-02-28T12:55:52;4.60;99.90
68051;DHT22;54839;51.364;7.246;2023-02-28T12:58:41;4.60;99.90
68051;DHT22;54839;51.364;7.246;2023-02-28T13:09:15;4.90;99.90
68051;DHT22;54839;51.364;7.246;2023-02-28T13:11:49;5.00;99.90
68051;DHT22;54839;51.364;7.246;2023-02-28T13:14:37;5.40;99.90
68051;DHT22;54839;51.364;7.246;2023-02-28T13:19:58;8.70;96.90
68051;DHT22;54839;51.364;7.246;2023-02-28T13:24:57;11.30;87.90
68051;DHT22;54839;51.364;7.246;2023-02-28T13:27:35;11.50;85.50
68051;DHT22;54839;51.364;7.246;2023-02-28T13:38:51;12.30;71.40
68051;DHT22;54839;51.364;7.246;2023-02-28T13:46:26;12.60;67.00
68051;DHT22;54839;51.364;7.246;2023-02-28T13:48:52;12.10;66.90
68051;DHT22;54839;51.364;7.246;2023-02-28T13:51:41;10.90;68.80
68051;DHT22;54839;51.364;7.246;2023-02-28T13:57:04;13.30;66.90
68051;DHT22;54839;51.364;7.246;2023-02-28T14:05:32;15.70;59.60
68051;DHT22;54839;51.364;7.246;2023-02-28T14:08:08;13.90;56.60
68051;DHT22;54839;51.364;7.246;2023-02-28T14:11:08;14.00;58.10
68051;DHT22;54839;51.364;7.246;2023-02-28T14:13:45;13.00;59.00
68051;DHT22;54839;51.364;7.246;2023-02-28T14:16:16;14.00;58.30
68051;DHT22;54839;51.364;7.246;2023-02-28T14:18:51;14.00;57.50
68051;DHT22;54839;51.364;7.246;2023-02-28T14:21:26;14.40;57.40
68051;DHT22;54839;51.364;7.246;2023-02-28T14:26:52;16.10;54.50
68051;DHT22;54839;51.364;7.246;2023-02-28T14:32:21;16.50;55.10
68051;DHT22;54839;51.364;7.246;2023-02-28T14:35:18;16.80;52.90
68051;DHT22;54839;51.364;7.246;2023-02-28T14:37:45;17.10;51.50
68051;DHT22;54839;51.364;7.246;2023-02-28T14:40:22;15.90;51.80
68051;DHT22;54839;51.364;7.246;2023-02-28T14:43:02;15.80;51.60
68051;DHT22;54839;51.364;7.246;2023-02-28T14:45:33;15.10;51.30
68051;DHT22;54839;51.364;7.246;2023-02-28T14:48:01;16.10;51.50
68051;DHT22;54839;51.364;7.246;2023-02-28T14:50:33;15.70;51.00
68051;DHT22;54839;51.364;7.246;2023-02-28T14:52:59;14.80;50.50
68051;DHT22;54839;51.364;7.246;2023-02-28T14:55:29;14.90;52.60
68051;DHT22;54839;51.364;7.246;2023-02-28T14:57:57;14.60;51.60
68051;DHT22;54839;51.364;7.246;2023-02-28T15:00:29;13.70;52.10
68051;DHT22;54839;51.364;7.246;2023-02-28T15:02:56;14.20;52.20
68051;DHT22;54839;51.364;7.246;2023-02-28T15:05:33;13.70;52.70
68051;DHT22;54839;51.364;7.246;2023-02-28T15:08:17;13.50;53.10
68051;DHT22;54839;51.364;7.246;2023-02-28T15:10:44;14.50;52.70
68051;DHT22;54839;51.364;7.246;2023-02-28T15:13:15;13.00;52.50
68051;DHT22;54839;51.364;7.246;2023-02-28T15:15:42;13.60;53.30
68051;DHT22;54839;51.364;7.246;2023-02-28T15:18:14;13.50;53.50
68051;DHT22;54839;51.364;7.246;2023-02-28T15:20:42;13.70;54.50
68051;DHT22;54839;51.364;7.246;2023-02-28T15:23:09;13.60;53.60
68051;DHT22;54839;51.364;7.246;2023-02-28T15:25:35;13.40;53.60
68051;DHT22;54839;51.364;7.246;2023-02-28T15:28:01;12.80;54.60
68051;DHT22;54839;51.364;7.246;2023-02-28T15:30:31;12.60;55.40
68051;DHT22;54839;51.364;7.246;2023-02-28T15:35:38;13.10;55.40
68051;DHT22;54839;51.364;7.246;2023-02-28T15:40:56;12.60;55.00
68051;DHT22;54839;51.364;7.246;2023-02-28T15:43:29;11.80;55.10
68051;DHT22;54839;51.364;7.246;2023-02-28T15:46:05;9.60;59.40
68051;DHT22;54839;51.364;7.246;2023-02-28T15:48:37;7.90;62.90
68051;DHT22;54839;51.364;7.246;2023-02-28T15:51:20;7.50;65.60
68051;DHT22;54839;51.364;7.246;2023-02-28T15:56:32;6.80;69.60
68051;DHT22;54839;51.364;7.246;2023-02-28T15:59:01;6.40;72.30
68051;DHT22;54839;51.364;7.246;2023-02-28T16:01:29;6.20;74.70
68051;DHT22;54839;51.364;7.246;2023-02-28T16:04:01;6.20;76.30
68051;DHT22;54839;51.364;7.246;2023-02-28T16:06:39;6.00;77.60
68051;DHT22;54839;51.364;7.246;2023-02-28T16:09:11;5.80;79.40
68051;DHT22;54839;51.364;7.246;2023-02-28T16:11:45;5.70;82.80
68051;DHT22;54839;51.364;7.246;2023-02-28T16:14:23;5.40;86.20
68051;DHT22;54839;51.364;7.246;2023-02-28T16:16:54;5.40;88.30
68051;DHT22;54839;51.364;7.246;2023-02-28T16:19:20;5.30;90.20
68051;DHT22;54839;51.364;7.246;2023-02-28T16:21:47;5.30;92.70
68051;DHT22;54839;51.364;7.246;2023-02-28T16:24:13;5.10;93.10
68051;DHT22;54839;51.364;7.246;2023-02-28T16:26:40;4.90;93.90
68051;DHT22;54839;51.364;7.246;2023-02-28T16:29:06;4.90;95.40
68051;DHT22;54839;51.364;7.246;2023-02-28T16:31:36;4.80;96.60
68051;DHT22;54839;51.364;7.246;2023-02-28T16:34:03;4.80;98.20
68051;DHT22;54839;51.364;7.246;2023-02-28T16:36:30;4.60;99.70
68051;DHT22;54839;51.364;7.246;2023-02-28T16:38:55;4.60;99.90
68051;DHT22;54839;51.364;7.246;2023-02-28T16:41:24;4.60;99.90
68051;DHT22;54839;51.364;7.246;2023-02-28T16:43:53;4.40;99.90
68051;DHT22;54839;51.364;7.246;2023-02-28T16:46:20;4.30;99.90
68051;DHT22;54839;51.364;7.246;2023-02-28T16:48:46;4.40;99.90
68051;DHT22;54839;51.364;7.246;2023-02-28T16:51:15;4.20;99.90
68051;DHT22;54839;51.364;7.246;2023-02-28T16:53:41;4.00;99.90
68051;DHT22;54839;51.364;7.246;2023-02-28T16:56:20;4.00;99.90
68051;DHT22;54839;51.364;7.246;2023-02-28T16:58:47;4.00;99.90
68051;DHT22;54839;51.364;7.246;2023-02-28T17:01:13;3.90;99.90
68051;DHT22;54839;51.364;7.246;2023-02-28T17:03:39;3.90;99.90
68051;DHT22;54839;51.364;7.246;2023-02-28T17:06:08;3.80;99.90
68051;DHT22;54839;51.364;7.246;2023-02-28T17:08:37;3.70;99.90
68051;DHT22;54839;51.364;7.246;2023-02-28T17:11:03;3.60;99.90
68051;DHT22;54839;51.364;7.246;2023-02-28T17:13:29;3.60;99.90
68051;DHT22;54839;51.364;7.246;2023-02-28T17:15:55;3.50;99.90
68051;DHT22;54839;51.364;7.246;2023-02-28T17:18:21;3.40;99.90
68051;DHT22;54839;51.364;7.246;2023-02-28T17:20:47;3.40;99.90
68051;DHT22;54839;51.364;7.246;2023-02-28T17:23:13;3.30;99.90
68051;DHT22;54839;51.364;7.246;2023-02-28T17:25:38;3.30;99.90
68051;DHT22;54839;51.364;7.246;2023-02-28T17:28:04;3.30;99.90
68051;DHT22;54839;51.364;7.246;2023-02-28T17:30:34;3.20;99.90
68051;DHT22;54839;51.364;7.246;2023-02-28T17:32:59;3.20;99.90
68051;DHT22;54839;51.364;7.246;2023-02-28T17:35:25;3.10;99.90
68051;DHT22;54839;51.364;7.246;2023-02-28T17:37:52;3.20;99.90
68051;DHT22;54839;51.364;7.246;2023-02-28T17:40:23;3.10;99.90
68051;DHT22;54839;51.364;7.246;2023-02-28T17:42:48;3.00;99.90
68051;DHT22;54839;51.364;7.246;2023-02-28T17:45:15;3.00;99.90
68051;DHT22;54839;51.364;7.246;2023-02-28T17:47:42;2.90;99.90
68051;DHT22;54839;51.364;7.246;2023-02-28T17:50:17;2.80;99.90
68051;DHT22;54839;51.364;7.246;2023-02-28T17:52:43;2.80;99.90
68051;DHT22;54839;51.364;7.246;2023-02-28T17:55:09;2.80;99.90
68051;DHT22;54839;51.364;7.246;2023-02-28T17:57:35;2.70;99.90
68051;DHT22;54839;51.364;7.246;2023-02-28T18:00:01;2.70;99.90
68051;DHT22;54839;51.364;7.246;2023-02-28T18:02:31;2.60;99.90